sensor_id;sensor_type;location;lat;lon;timestamp;P1;durP1;ratioP1;P2;durP2;ratioP2
66437;SDS011;54537;47.972;11.662;2023-05-14T00:00:54;20.73;;;8.43;;
66437;SDS011;54537;47.972;11.662;2023-05-14T00:03:20;23.73;;;9.32;;
66437;SDS011;54537;47.972;11.662;2023-05-14T00:05:47;24.52;;;9.55;;
66437;SDS011;54537;47.972;11.662;2023-05-14T00:08:13;21.63;;;8.75;;
66437;SDS011;54537;47.972;11.662;2023-05-14T00:10:40;24.05;;;10.25;;
66437;SDS011;54537;47.972;11.662;2023-05-14T00:13:06;31.10;;;12.30;;
66437;SDS011;54537;47.972;11.662;2023-05-14T00:15:33;29.35;;;11.75;;
66437;SDS011;54537;47.972;11.662;2023-05-14T00:18:00;26.95;;;11.27;;
66437;SDS011;54537;47.972;11.662;2023-05-14T00:20:27;32.10;;;12.27;;
66437;SDS011;54537;47.972;11.662;2023-05-14T00:22:53;29.80;;;11.60;;
66437;SDS011;54537;47.972;11.662;2023-05-14T00:25:20;29.30;;;11.77;;
66437;SDS011;54537;47.972;11.662;2023-05-14T00:27:47;30.42;;;11.63;;
66437;SDS011;54537;47.972;11.662;2023-05-14T00:30:13;29.25;;;11.23;;
66437;SDS011;54537;47.972;11.662;2023-05-14T00:32:40;26.77;;;10.25;;
66437;SDS011;54537;47.972;11.662;2023-05-14T00:35:08;27.42;;;11.30;;
66437;SDS011;54537;47.972;11.662;2023-05-14T00:37:34;26.23;;;10.93;;
66437;SDS011;54537;47.972;11.662;2023-05-14T00:40:01;27.50;;;10.93;;
66437;SDS011;54537;47.972;11.662;2023-05-14T00:42:30;26.33;;;10.82;;
66437;SDS011;54537;47.972;11.662;2023-05-14T00:44:57;28.00;;;9.95;;
66437;SDS011;54537;47.972;11.662;2023-05-14T00:47:23;25.33;;;9.63;;
66437;SDS011;54537;47.972;11.662;2023-05-14T00:49:50;28.00;;;9.98;;
66437;SDS011;54537;47.972;11.662;2023-05-14T00:52:17;26.88;;;9.75;;
66437;SDS011;54537;47.972;11.662;2023-05-14T00:54:44;25.00;;;9.48;;
66437;SDS011;54537;47.972;11.662;2023-05-14T00:57:11;22.27;;;9.10;;
66437;SDS011;54537;47.972;11.662;2023-05-14T00:59:38;24.23;;;9.50;;
66437;SDS011;54537;47.972;11.662;2023-05-14T01:02:06;24.63;;;9.10;;
66437;SDS011;54537;47.972;11.662;2023-05-14T01:04:33;26.63;;;9.30;;
66437;SDS011;54537;47.972;11.662;2023-05-14T01:07:02;24.88;;;9.80;;
66437;SDS011;54537;47.972;11.662;2023-05-14T01:09:38;24.90;;;9.60;;
66437;SDS011;54537;47.972;11.662;2023-05-14T01:12:26;26.02;;;9.82;;
66437;SDS011;54537;47.972;11.662;2023-05-14T01:14:58;28.38;;;10.10;;
66437;SDS011;54537;47.972;11.662;2023-05-14T01:17:28;31.92;;;10.35;;
66437;SDS011;54537;47.972;11.662;2023-05-14T01:19:57;34.85;;;10.57;;
66437;SDS011;54537;47.972;11.662;2023-05-14T01:22:27;35.70;;;10.93;;
66437;SDS011;54537;47.972;11.662;2023-05-14T01:24:53;29.38;;;10.57;;
66437;SDS011;54537;47.972;11.662;2023-05-14T01:27:21;34.03;;;10.80;;
66437;SDS011;54537;47.972;11.662;2023-05-14T01:29:52;30.10;;;9.88;;
66437;SDS011;54537;47.972;11.662;2023-05-14T01:32:23;29.00;;;9.75;;
66437;SDS011;54537;47.972;11.662;2023-05-14T01:34:50;33.17;;;11.30;;
66437;SDS011;54537;47.972;11.662;2023-05-14T01:37:17;30.40;;;10.75;;
66437;SDS011;54537;47.972;11.662;2023-05-14T01:39:45;37.10;;;10.70;;
66437;SDS011;54537;47.972;11.662;2023-05-14T01:42:12;33.65;;;11.75;;
66437;SDS011;54537;47.972;11.662;2023-05-14T01:44:38;32.67;;;11.75;;
66437;SDS011;54537;47.972;11.662;2023-05-14T01:47:05;31.42;;;11.88;;
66437;SDS011;54537;47.972;11.662;2023-05-14T01:49:31;35.95;;;12.52;;
66437;SDS011;54537;47.972;11.662;2023-05-14T01:51:58;34.17;;;12.02;;
66437;SDS011;54537;47.972;11.662;2023-05-14T01:54:24;36.90;;;12.60;;
66437;SDS011;54537;47.972;11.662;2023-05-14T01:56:52;36.30;;;12.15;;
66437;SDS011;54537;47.972;11.662;2023-05-14T01:59:18;34.75;;;12.05;;
66437;SDS011;54537;47.972;11.662;2023-05-14T02:01:45;38.03;;;12.68;;
66437;SDS011;54537;47.972;11.662;2023-05-14T02:04:11;33.38;;;12.75;;
66437;SDS011;54537;47.972;11.662;2023-05-14T02:06:38;31.60;;;11.07;;
66437;SDS011;54537;47.972;11.662;2023-05-14T02:09:04;34.58;;;11.85;;
66437;SDS011;54537;47.972;11.662;2023-05-14T02:11:31;34.10;;;12.02;;
66437;SDS011;54537;47.972;11.662;2023-05-14T02:13:58;36.67;;;13.98;;
66437;SDS011;54537;47.972;11.662;2023-05-14T02:16:25;42.65;;;13.75;;
66437;SDS011;54537;47.972;11.662;2023-05-14T02:18:51;39.15;;;14.05;;
66437;SDS011;54537;47.972;11.662;2023-05-14T02:21:18;40.88;;;13.98;;
66437;SDS011;54537;47.972;11.662;2023-05-14T02:23:44;39.67;;;14.70;;
66437;SDS011;54537;47.972;11.662;2023-05-14T02:26:12;39.00;;;13.50;;
66437;SDS011;54537;47.972;11.662;2023-05-14T02:28:38;39.33;;;14.30;;
66437;SDS011;54537;47.972;11.662;2023-05-14T02:31:06;50.42;;;15.38;;
66437;SDS011;54537;47.972;11.662;2023-05-14T02:33:33;46.20;;;14.30;;
66437;SDS011;54537;47.972;11.662;2023-05-14T02:35:59;45.38;;;16.65;;
66437;SDS011;54537;47.972;11.662;2023-05-14T02:38:26;43.05;;;15.88;;
66437;SDS011;54537;47.972;11.662;2023-05-14T02:40:52;42.00;;;15.13;;
66437;SDS011;54537;47.972;11.662;2023-05-14T02:43:18;43.42;;;16.05;;
66437;SDS011;54537;47.972;11.662;2023-05-14T02:45:45;49.40;;;17.17;;
66437;SDS011;54537;47.972;11.662;2023-05-14T02:48:13;48.15;;;17.25;;
66437;SDS011;54537;47.972;11.662;2023-05-14T02:50:40;46.47;;;16.23;;
66437;SDS011;54537;47.972;11.662;2023-05-14T02:53:06;42.22;;;15.30;;
66437;SDS011;54537;47.972;11.662;2023-05-14T02:55:33;49.10;;;15.50;;
66437;SDS011;54537;47.972;11.662;2023-05-14T02:58:00;43.67;;;16.15;;
66437;SDS011;54537;47.972;11.662;2023-05-14T03:00:26;46.05;;;16.17;;
66437;SDS011;54537;47.972;11.662;2023-05-14T03:02:53;45.00;;;16.08;;
66437;SDS011;54537;47.972;11.662;2023-05-14T03:05:20;41.85;;;15.25;;
66437;SDS011;54537;47.972;11.662;2023-05-14T03:07:48;44.58;;;15.25;;
66437;SDS011;54537;47.972;11.662;2023-05-14T03:10:15;42.92;;;14.70;;
66437;SDS011;54537;47.972;11.662;2023-05-14T03:12:41;38.58;;;14.77;;
66437;SDS011;54537;47.972;11.662;2023-05-14T03:15:08;43.08;;;15.10;;
66437;SDS011;54537;47.972;11.662;2023-05-14T03:17:35;49.80;;;15.10;;
66437;SDS011;54537;47.972;11.662;2023-05-14T03:20:02;42.00;;;13.38;;
66437;SDS011;54537;47.972;11.662;2023-05-14T03:22:30;50.03;;;14.48;;
66437;SDS011;54537;47.972;11.662;2023-05-14T03:24:57;41.50;;;14.93;;
66437;SDS011;54537;47.972;11.662;2023-05-14T03:27:23;46.15;;;15.27;;
66437;SDS011;54537;47.972;11.662;2023-05-14T03:29:50;51.17;;;15.55;;
66437;SDS011;54537;47.972;11.662;2023-05-14T03:32:16;47.15;;;14.95;;
66437;SDS011;54537;47.972;11.662;2023-05-14T03:34:43;44.63;;;14.23;;
66437;SDS011;54537;47.972;11.662;2023-05-14T03:37:09;47.00;;;15.15;;
66437;SDS011;54537;47.972;11.662;2023-05-14T03:39:37;45.70;;;15.07;;
66437;SDS011;54537;47.972;11.662;2023-05-14T03:42:04;56.05;;;16.13;;
66437;SDS011;54537;47.972;11.662;2023-05-14T03:44:30;57.92;;;15.52;;
66437;SDS011;54537;47.972;11.662;2023-05-14T03:46:57;48.67;;;15.70;;
66437;SDS011;54537;47.972;11.662;2023-05-14T03:49:23;46.42;;;15.48;;
66437;SDS011;54537;47.972;11.662;2023-05-14T03:51:50;42.83;;;14.52;;
66437;SDS011;54537;47.972;11.662;2023-05-14T03:54:16;44.75;;;14.88;;
66437;SDS011;54537;47.972;11.662;2023-05-14T03:56:44;47.10;;;14.90;;
66437;SDS011;54537;47.972;11.662;2023-05-14T03:59:11;48.30;;;16.38;;
66437;SDS011;54537;47.972;11.662;2023-05-14T04:01:37;55.10;;;15.07;;
66437;SDS011;54537;47.972;11.662;2023-05-14T04:04:04;41.70;;;14.52;;
66437;SDS011;54537;47.972;11.662;2023-05-14T04:06:30;51.58;;;14.70;;
66437;SDS011;54537;47.972;11.662;2023-05-14T04:08:57;45.75;;;15.30;;
66437;SDS011;54537;47.972;11.662;2023-05-14T04:11:24;49.03;;;14.00;;
66437;SDS011;54537;47.972;11.662;2023-05-14T04:13:51;48.22;;;15.85;;
66437;SDS011;54537;47.972;11.662;2023-05-14T04:16:18;48.40;;;15.05;;
66437;SDS011;54537;47.972;11.662;2023-05-14T04:18:44;45.03;;;14.43;;
66437;SDS011;54537;47.972;11.662;2023-05-14T04:21:11;51.10;;;15.07;;
66437;SDS011;54537;47.972;11.662;2023-05-14T04:23:37;48.83;;;14.73;;
66437;SDS011;54537;47.972;11.662;2023-05-14T04:26:04;46.38;;;14.25;;
66437;SDS011;54537;47.972;11.662;2023-05-14T04:28:30;42.38;;;14.75;;
66437;SDS011;54537;47.972;11.662;2023-05-14T04:30:58;41.22;;;14.73;;
66437;SDS011;54537;47.972;11.662;2023-05-14T04:33:25;42.85;;;13.85;;
66437;SDS011;54537;47.972;11.662;2023-05-14T04:35:51;37.08;;;13.18;;
66437;SDS011;54537;47.972;11.662;2023-05-14T04:38:18;40.85;;;13.75;;
66437;SDS011;54537;47.972;11.662;2023-05-14T04:40:45;38.70;;;12.93;;
66437;SDS011;54537;47.972;11.662;2023-05-14T04:43:11;37.80;;;13.20;;
66437;SDS011;54537;47.972;11.662;2023-05-14T04:45:37;34.13;;;12.25;;
66437;SDS011;54537;47.972;11.662;2023-05-14T04:48:06;37.40;;;12.43;;
66437;SDS011;54537;47.972;11.662;2023-05-14T04:50:33;36.08;;;13.43;;
66437;SDS011;54537;47.972;11.662;2023-05-14T04:52:59;37.72;;;12.82;;
66437;SDS011;54537;47.972;11.662;2023-05-14T04:55:27;38.75;;;12.88;;
66437;SDS011;54537;47.972;11.662;2023-05-14T04:57:53;38.88;;;13.32;;
66437;SDS011;54537;47.972;11.662;2023-05-14T05:00:20;36.13;;;12.85;;
66437;SDS011;54537;47.972;11.662;2023-05-14T05:02:47;35.38;;;13.18;;
66437;SDS011;54537;47.972;11.662;2023-05-14T05:05:15;39.75;;;13.80;;
66437;SDS011;54537;47.972;11.662;2023-05-14T05:07:41;35.22;;;12.68;;
66437;SDS011;54537;47.972;11.662;2023-05-14T05:10:08;34.80;;;12.32;;
66437;SDS011;54537;47.972;11.662;2023-05-14T05:12:34;36.55;;;12.40;;
66437;SDS011;54537;47.972;11.662;2023-05-14T05:15:01;31.90;;;11.27;;
66437;SDS011;54537;47.972;11.662;2023-05-14T05:17:27;32.38;;;12.00;;
66437;SDS011;54537;47.972;11.662;2023-05-14T05:19:54;37.45;;;12.55;;
66437;SDS011;54537;47.972;11.662;2023-05-14T05:22:22;31.55;;;12.18;;
66437;SDS011;54537;47.972;11.662;2023-05-14T05:24:48;31.73;;;12.32;;
66437;SDS011;54537;47.972;11.662;2023-05-14T05:27:15;31.23;;;11.30;;
66437;SDS011;54537;47.972;11.662;2023-05-14T05:29:42;30.15;;;12.00;;
66437;SDS011;54537;47.972;11.662;2023-05-14T05:32:08;31.48;;;11.93;;
66437;SDS011;54537;47.972;11.662;2023-05-14T05:34:35;30.17;;;11.05;;
66437;SDS011;54537;47.972;11.662;2023-05-14T05:37:01;32.92;;;12.23;;
66437;SDS011;54537;47.972;11.662;2023-05-14T05:39:31;35.13;;;12.48;;
66437;SDS011;54537;47.972;11.662;2023-05-14T05:41:58;33.03;;;12.35;;
66437;SDS011;54537;47.972;11.662;2023-05-14T05:44:25;33.88;;;11.82;;
66437;SDS011;54537;47.972;11.662;2023-05-14T05:46:51;33.92;;;11.55;;
66437;SDS011;54537;47.972;11.662;2023-05-14T05:49:20;32.13;;;12.60;;
66437;SDS011;54537;47.972;11.662;2023-05-14T05:51:46;32.15;;;12.60;;
66437;SDS011;54537;47.972;11.662;2023-05-14T05:54:13;34.42;;;11.82;;
66437;SDS011;54537;47.972;11.662;2023-05-14T05:56:41;30.02;;;11.88;;
66437;SDS011;54537;47.972;11.662;2023-05-14T05:59:07;35.33;;;12.70;;
66437;SDS011;54537;47.972;11.662;2023-05-14T06:01:34;33.65;;;12.55;;
66437;SDS011;54537;47.972;11.662;2023-05-14T06:04:00;32.22;;;11.90;;
66437;SDS011;54537;47.972;11.662;2023-05-14T06:06:28;30.15;;;12.63;;
66437;SDS011;54537;47.972;11.662;2023-05-14T06:08:56;34.20;;;12.60;;
66437;SDS011;54537;47.972;11.662;2023-05-14T06:11:23;30.38;;;11.80;;
66437;SDS011;54537;47.972;11.662;2023-05-14T06:13:51;33.60;;;12.30;;
66437;SDS011;54537;47.972;11.662;2023-05-14T06:16:17;29.95;;;11.93;;
66437;SDS011;54537;47.972;11.662;2023-05-14T06:18:44;30.60;;;12.05;;
66437;SDS011;54537;47.972;11.662;2023-05-14T06:21:11;28.95;;;11.63;;
66437;SDS011;54537;47.972;11.662;2023-05-14T06:23:37;29.52;;;11.75;;
66437;SDS011;54537;47.972;11.662;2023-05-14T06:26:04;31.75;;;12.43;;
66437;SDS011;54537;47.972;11.662;2023-05-14T06:28:30;29.52;;;12.27;;
66437;SDS011;54537;47.972;11.662;2023-05-14T06:30:58;28.40;;;11.05;;
66437;SDS011;54537;47.972;11.662;2023-05-14T06:33:24;29.05;;;11.88;;
66437;SDS011;54537;47.972;11.662;2023-05-14T06:35:54;30.48;;;11.88;;
66437;SDS011;54537;47.972;11.662;2023-05-14T06:38:21;36.28;;;13.48;;
66437;SDS011;54537;47.972;11.662;2023-05-14T06:40:47;38.60;;;13.90;;
66437;SDS011;54537;47.972;11.662;2023-05-14T06:43:14;34.75;;;12.13;;
66437;SDS011;54537;47.972;11.662;2023-05-14T06:45:40;32.47;;;12.25;;
66437;SDS011;54537;47.972;11.662;2023-05-14T06:48:08;34.50;;;12.98;;
66437;SDS011;54537;47.972;11.662;2023-05-14T06:50:34;29.98;;;11.77;;
66437;SDS011;54537;47.972;11.662;2023-05-14T06:53:01;30.92;;;11.95;;
66437;SDS011;54537;47.972;11.662;2023-05-14T06:55:27;29.42;;;11.80;;
66437;SDS011;54537;47.972;11.662;2023-05-14T06:57:54;33.00;;;12.75;;
66437;SDS011;54537;47.972;11.662;2023-05-14T07:00:21;32.20;;;12.52;;
66437;SDS011;54537;47.972;11.662;2023-05-14T07:02:47;37.05;;;12.98;;
66437;SDS011;54537;47.972;11.662;2023-05-14T07:05:15;32.65;;;12.93;;
66437;SDS011;54537;47.972;11.662;2023-05-14T07:07:42;32.30;;;11.98;;
66437;SDS011;54537;47.972;11.662;2023-05-14T07:10:09;32.17;;;12.15;;
66437;SDS011;54537;47.972;11.662;2023-05-14T07:12:35;34.15;;;12.38;;
66437;SDS011;54537;47.972;11.662;2023-05-14T07:15:02;34.60;;;13.32;;
66437;SDS011;54537;47.972;11.662;2023-05-14T07:17:29;33.70;;;13.35;;
66437;SDS011;54537;47.972;11.662;2023-05-14T07:19:56;35.55;;;12.70;;
66437;SDS011;54537;47.972;11.662;2023-05-14T07:22:23;35.63;;;12.82;;
66437;SDS011;54537;47.972;11.662;2023-05-14T07:24:50;34.50;;;12.82;;
66437;SDS011;54537;47.972;11.662;2023-05-14T07:27:16;37.95;;;11.82;;
66437;SDS011;54537;47.972;11.662;2023-05-14T07:29:43;29.38;;;11.80;;
66437;SDS011;54537;47.972;11.662;2023-05-14T07:32:09;32.95;;;11.70;;
66437;SDS011;54537;47.972;11.662;2023-05-14T07:34:36;31.92;;;11.90;;
66437;SDS011;54537;47.972;11.662;2023-05-14T07:37:02;33.30;;;12.80;;
66437;SDS011;54537;47.972;11.662;2023-05-14T07:39:30;29.88;;;11.75;;
66437;SDS011;54537;47.972;11.662;2023-05-14T07:41:57;30.15;;;11.90;;
66437;SDS011;54537;47.972;11.662;2023-05-14T07:44:25;26.85;;;11.20;;
66437;SDS011;54537;47.972;11.662;2023-05-14T07:46:51;29.58;;;10.73;;
66437;SDS011;54537;47.972;11.662;2023-05-14T07:49:18;27.50;;;11.48;;
66437;SDS011;54537;47.972;11.662;2023-05-14T07:51:44;31.58;;;10.82;;
66437;SDS011;54537;47.972;11.662;2023-05-14T07:54:10;28.05;;;10.35;;
66437;SDS011;54537;47.972;11.662;2023-05-14T07:56:38;30.38;;;10.52;;
66437;SDS011;54537;47.972;11.662;2023-05-14T07:59:05;25.98;;;10.50;;
66437;SDS011;54537;47.972;11.662;2023-05-14T08:01:32;29.83;;;11.25;;
66437;SDS011;54537;47.972;11.662;2023-05-14T08:03:58;37.42;;;11.20;;
66437;SDS011;54537;47.972;11.662;2023-05-14T08:06:25;26.10;;;10.13;;
66437;SDS011;54537;47.972;11.662;2023-05-14T08:08:52;25.02;;;10.13;;
66437;SDS011;54537;47.972;11.662;2023-05-14T08:11:18;29.23;;;11.60;;
66437;SDS011;54537;47.972;11.662;2023-05-14T08:13:47;27.67;;;10.85;;
66437;SDS011;54537;47.972;11.662;2023-05-14T08:16:14;23.85;;;9.88;;
66437;SDS011;54537;47.972;11.662;2023-05-14T08:18:40;25.80;;;10.63;;
66437;SDS011;54537;47.972;11.662;2023-05-14T08:21:07;24.85;;;9.95;;
66437;SDS011;54537;47.972;11.662;2023-05-14T08:23:33;23.63;;;9.60;;
66437;SDS011;54537;47.972;11.662;2023-05-14T08:26:00;22.95;;;9.70;;
66437;SDS011;54537;47.972;11.662;2023-05-14T08:28:26;22.85;;;9.38;;
66437;SDS011;54537;47.972;11.662;2023-05-14T08:30:54;20.48;;;8.73;;
66437;SDS011;54537;47.972;11.662;2023-05-14T08:33:21;22.08;;;8.63;;
66437;SDS011;54537;47.972;11.662;2023-05-14T08:35:48;22.42;;;9.60;;
66437;SDS011;54537;47.972;11.662;2023-05-14T08:38:15;23.83;;;9.07;;
66437;SDS011;54537;47.972;11.662;2023-05-14T08:40:45;21.85;;;9.23;;
66437;SDS011;54537;47.972;11.662;2023-05-14T08:43:13;23.27;;;8.88;;
66437;SDS011;54537;47.972;11.662;2023-05-14T08:45:41;23.75;;;8.98;;
66437;SDS011;54537;47.972;11.662;2023-05-14T08:48:09;21.27;;;8.98;;
66437;SDS011;54537;47.972;11.662;2023-05-14T08:50:37;20.40;;;8.20;;
66437;SDS011;54537;47.972;11.662;2023-05-14T08:53:04;24.55;;;9.68;;
66437;SDS011;54537;47.972;11.662;2023-05-14T08:55:30;22.38;;;8.70;;
66437;SDS011;54537;47.972;11.662;2023-05-14T08:57:58;20.67;;;8.40;;
66437;SDS011;54537;47.972;11.662;2023-05-14T09:00:25;26.00;;;9.75;;
66437;SDS011;54537;47.972;11.662;2023-05-14T09:02:51;24.80;;;9.30;;
66437;SDS011;54537;47.972;11.662;2023-05-14T09:05:20;23.35;;;9.27;;
66437;SDS011;54537;47.972;11.662;2023-05-14T09:07:47;20.15;;;8.15;;
66437;SDS011;54537;47.972;11.662;2023-05-14T09:10:13;20.73;;;8.43;;
66437;SDS011;54537;47.972;11.662;2023-05-14T09:12:40;20.15;;;7.95;;
66437;SDS011;54537;47.972;11.662;2023-05-14T09:15:07;18.98;;;7.78;;
66437;SDS011;54537;47.972;11.662;2023-05-14T09:17:34;18.90;;;7.90;;
66437;SDS011;54537;47.972;11.662;2023-05-14T09:20:00;21.85;;;8.48;;
66437;SDS011;54537;47.972;11.662;2023-05-14T09:22:29;19.10;;;7.20;;
66437;SDS011;54537;47.972;11.662;2023-05-14T09:25:03;17.52;;;7.57;;
66437;SDS011;54537;47.972;11.662;2023-05-14T09:27:31;19.48;;;7.22;;
66437;SDS011;54537;47.972;11.662;2023-05-14T09:30:05;19.70;;;8.32;;
66437;SDS011;54537;47.972;11.662;2023-05-14T09:32:36;20.20;;;8.40;;
66437;SDS011;54537;47.972;11.662;2023-05-14T09:35:14;18.52;;;8.27;;
66437;SDS011;54537;47.972;11.662;2023-05-14T09:37:44;18.17;;;7.40;;
66437;SDS011;54537;47.972;11.662;2023-05-14T09:40:11;21.10;;;8.57;;
66437;SDS011;54537;47.972;11.662;2023-05-14T09:42:38;20.08;;;8.32;;
66437;SDS011;54537;47.972;11.662;2023-05-14T09:45:06;23.00;;;9.07;;
66437;SDS011;54537;47.972;11.662;2023-05-14T09:47:33;25.27;;;9.63;;
66437;SDS011;54537;47.972;11.662;2023-05-14T09:50:00;26.42;;;9.88;;
66437;SDS011;54537;47.972;11.662;2023-05-14T09:52:26;24.83;;;9.65;;
66437;SDS011;54537;47.972;11.662;2023-05-14T09:54:54;27.33;;;9.82;;
66437;SDS011;54537;47.972;11.662;2023-05-14T09:57:21;24.65;;;9.65;;
66437;SDS011;54537;47.972;11.662;2023-05-14T09:59:47;21.65;;;8.70;;
66437;SDS011;54537;47.972;11.662;2023-05-14T10:02:17;23.02;;;8.30;;
66437;SDS011;54537;47.972;11.662;2023-05-14T10:04:47;21.88;;;8.35;;
66437;SDS011;54537;47.972;11.662;2023-05-14T10:07:15;20.08;;;8.18;;
66437;SDS011;54537;47.972;11.662;2023-05-14T10:09:43;23.48;;;8.57;;
66437;SDS011;54537;47.972;11.662;2023-05-14T10:12:12;20.85;;;7.95;;
66437;SDS011;54537;47.972;11.662;2023-05-14T10:14:42;19.58;;;7.63;;
66437;SDS011;54537;47.972;11.662;2023-05-14T10:17:13;18.83;;;7.75;;
66437;SDS011;54537;47.972;11.662;2023-05-14T10:19:44;19.85;;;7.40;;
66437;SDS011;54537;47.972;11.662;2023-05-14T10:22:13;20.10;;;8.60;;
66437;SDS011;54537;47.972;11.662;2023-05-14T10:24:40;17.85;;;7.40;;
66437;SDS011;54537;47.972;11.662;2023-05-14T10:27:07;23.50;;;8.15;;
66437;SDS011;54537;47.972;11.662;2023-05-14T10:29:35;21.70;;;8.70;;
66437;SDS011;54537;47.972;11.662;2023-05-14T10:32:03;21.83;;;8.23;;
66437;SDS011;54537;47.972;11.662;2023-05-14T10:34:32;18.73;;;7.93;;
66437;SDS011;54537;47.972;11.662;2023-05-14T10:37:01;21.20;;;9.23;;
66437;SDS011;54537;47.972;11.662;2023-05-14T10:39:45;20.52;;;7.53;;
66437;SDS011;54537;47.972;11.662;2023-05-14T10:42:12;16.40;;;7.38;;
66437;SDS011;54537;47.972;11.662;2023-05-14T10:44:46;17.75;;;7.35;;
66437;SDS011;54537;47.972;11.662;2023-05-14T10:47:14;22.33;;;8.38;;
66437;SDS011;54537;47.972;11.662;2023-05-14T10:49:41;20.63;;;8.05;;
66437;SDS011;54537;47.972;11.662;2023-05-14T10:52:09;18.55;;;7.85;;
66437;SDS011;54537;47.972;11.662;2023-05-14T10:54:36;21.10;;;7.90;;
66437;SDS011;54537;47.972;11.662;2023-05-14T10:57:03;23.65;;;8.95;;
66437;SDS011;54537;47.972;11.662;2023-05-14T10:59:29;18.75;;;8.00;;
66437;SDS011;54537;47.972;11.662;2023-05-14T11:02:00;17.92;;;7.45;;
66437;SDS011;54537;47.972;11.662;2023-05-14T11:04:30;18.90;;;8.02;;
66437;SDS011;54537;47.972;11.662;2023-05-14T11:06:56;17.40;;;7.53;;
66437;SDS011;54537;47.972;11.662;2023-05-14T11:09:23;18.55;;;7.47;;
66437;SDS011;54537;47.972;11.662;2023-05-14T11:11:50;16.52;;;7.05;;
66437;SDS011;54537;47.972;11.662;2023-05-14T11:14:18;17.30;;;7.90;;
66437;SDS011;54537;47.972;11.662;2023-05-14T11:16:45;15.63;;;6.70;;
66437;SDS011;54537;47.972;11.662;2023-05-14T11:19:13;18.10;;;7.72;;
66437;SDS011;54537;47.972;11.662;2023-05-14T11:21:41;16.08;;;7.05;;
66437;SDS011;54537;47.972;11.662;2023-05-14T11:24:08;14.68;;;6.90;;
66437;SDS011;54537;47.972;11.662;2023-05-14T11:26:35;16.45;;;7.38;;
66437;SDS011;54537;47.972;11.662;2023-05-14T11:29:03;15.05;;;6.85;;
66437;SDS011;54537;47.972;11.662;2023-05-14T11:31:30;15.52;;;7.38;;
66437;SDS011;54537;47.972;11.662;2023-05-14T11:33:56;15.48;;;7.15;;
66437;SDS011;54537;47.972;11.662;2023-05-14T11:36:25;13.35;;;5.90;;
66437;SDS011;54537;47.972;11.662;2023-05-14T11:38:52;15.98;;;6.18;;
66437;SDS011;54537;47.972;11.662;2023-05-14T11:41:18;12.95;;;6.22;;
66437;SDS011;54537;47.972;11.662;2023-05-14T11:43:46;12.70;;;5.88;;
66437;SDS011;54537;47.972;11.662;2023-05-14T11:46:16;12.40;;;6.03;;
66437;SDS011;54537;47.972;11.662;2023-05-14T11:48:43;15.13;;;6.20;;
66437;SDS011;54537;47.972;11.662;2023-05-14T11:51:10;13.13;;;6.15;;
66437;SDS011;54537;47.972;11.662;2023-05-14T11:53:38;11.93;;;5.75;;
66437;SDS011;54537;47.972;11.662;2023-05-14T11:56:04;11.60;;;5.93;;
66437;SDS011;54537;47.972;11.662;2023-05-14T11:58:31;14.45;;;5.47;;
66437;SDS011;54537;47.972;11.662;2023-05-14T12:00:58;11.23;;;5.43;;
66437;SDS011;54537;47.972;11.662;2023-05-14T12:03:25;14.52;;;6.13;;
66437;SDS011;54537;47.972;11.662;2023-05-14T12:05:54;10.55;;;5.35;;
66437;SDS011;54537;47.972;11.662;2023-05-14T12:08:21;12.55;;;5.70;;
66437;SDS011;54537;47.972;11.662;2023-05-14T12:10:50;10.95;;;5.50;;
66437;SDS011;54537;47.972;11.662;2023-05-14T12:13:17;11.73;;;5.43;;
66437;SDS011;54537;47.972;11.662;2023-05-14T12:15:44;12.57;;;5.60;;
66437;SDS011;54537;47.972;11.662;2023-05-14T12:18:12;9.43;;;4.88;;
66437;SDS011;54537;47.972;11.662;2023-05-14T12:20:38;9.52;;;4.93;;
66437;SDS011;54537;47.972;11.662;2023-05-14T12:23:08;10.60;;;4.80;;
66437;SDS011;54537;47.972;11.662;2023-05-14T12:25:36;8.68;;;4.88;;
66437;SDS011;54537;47.972;11.662;2023-05-14T12:28:13;10.70;;;4.72;;
66437;SDS011;54537;47.972;11.662;2023-05-14T12:30:40;9.35;;;4.55;;
66437;SDS011;54537;47.972;11.662;2023-05-14T12:33:06;8.23;;;4.97;;
66437;SDS011;54537;47.972;11.662;2023-05-14T12:35:33;8.85;;;4.45;;
66437;SDS011;54537;47.972;11.662;2023-05-14T12:38:00;7.53;;;4.03;;
66437;SDS011;54537;47.972;11.662;2023-05-14T12:40:27;8.93;;;4.43;;
66437;SDS011;54537;47.972;11.662;2023-05-14T12:42:53;9.35;;;4.18;;
66437;SDS011;54537;47.972;11.662;2023-05-14T12:45:21;7.85;;;4.13;;
66437;SDS011;54537;47.972;11.662;2023-05-14T12:47:48;7.10;;;4.05;;
66437;SDS011;54537;47.972;11.662;2023-05-14T12:50:15;7.93;;;4.03;;
66437;SDS011;54537;47.972;11.662;2023-05-14T12:52:41;8.55;;;4.53;;
66437;SDS011;54537;47.972;11.662;2023-05-14T12:55:08;9.15;;;4.00;;
66437;SDS011;54537;47.972;11.662;2023-05-14T12:57:35;7.45;;;3.60;;
66437;SDS011;54537;47.972;11.662;2023-05-14T13:00:03;7.05;;;3.90;;
66437;SDS011;54537;47.972;11.662;2023-05-14T13:02:33;7.57;;;4.00;;
66437;SDS011;54537;47.972;11.662;2023-05-14T13:04:59;7.75;;;4.00;;
66437;SDS011;54537;47.972;11.662;2023-05-14T13:07:26;8.35;;;3.70;;
66437;SDS011;54537;47.972;11.662;2023-05-14T13:09:54;6.60;;;3.33;;
66437;SDS011;54537;47.972;11.662;2023-05-14T13:12:20;7.32;;;3.78;;
66437;SDS011;54537;47.972;11.662;2023-05-14T13:14:47;5.70;;;2.90;;
66437;SDS011;54537;47.972;11.662;2023-05-14T13:17:14;6.43;;;3.50;;
66437;SDS011;54537;47.972;11.662;2023-05-14T13:19:42;8.82;;;3.80;;
66437;SDS011;54537;47.972;11.662;2023-05-14T13:22:09;6.05;;;3.47;;
66437;SDS011;54537;47.972;11.662;2023-05-14T13:24:35;7.72;;;3.90;;
66437;SDS011;54537;47.972;11.662;2023-05-14T13:27:02;7.13;;;3.67;;
66437;SDS011;54537;47.972;11.662;2023-05-14T13:29:29;7.28;;;3.47;;
66437;SDS011;54537;47.972;11.662;2023-05-14T13:31:56;6.07;;;3.42;;
66437;SDS011;54537;47.972;11.662;2023-05-14T13:34:23;9.25;;;3.72;;
66437;SDS011;54537;47.972;11.662;2023-05-14T13:36:51;5.65;;;3.22;;
66437;SDS011;54537;47.972;11.662;2023-05-14T13:39:18;6.60;;;3.38;;
66437;SDS011;54537;47.972;11.662;2023-05-14T13:41:46;5.95;;;3.38;;
66437;SDS011;54537;47.972;11.662;2023-05-14T13:44:14;6.63;;;3.65;;
66437;SDS011;54537;47.972;11.662;2023-05-14T13:46:41;5.85;;;3.03;;
66437;SDS011;54537;47.972;11.662;2023-05-14T13:49:08;5.55;;;3.03;;
66437;SDS011;54537;47.972;11.662;2023-05-14T13:51:35;5.53;;;3.08;;
66437;SDS011;54537;47.972;11.662;2023-05-14T13:54:03;6.25;;;2.63;;
66437;SDS011;54537;47.972;11.662;2023-05-14T13:56:29;5.25;;;2.85;;
66437;SDS011;54537;47.972;11.662;2023-05-14T13:58:56;4.95;;;2.90;;
66437;SDS011;54537;47.972;11.662;2023-05-14T14:01:22;6.45;;;2.85;;
66437;SDS011;54537;47.972;11.662;2023-05-14T14:03:49;4.35;;;2.22;;
66437;SDS011;54537;47.972;11.662;2023-05-14T14:06:16;4.57;;;2.50;;
66437;SDS011;54537;47.972;11.662;2023-05-14T14:08:42;5.05;;;2.42;;
66437;SDS011;54537;47.972;11.662;2023-05-14T14:11:10;3.72;;;2.15;;
66437;SDS011;54537;47.972;11.662;2023-05-14T14:13:38;6.20;;;2.60;;
66437;SDS011;54537;47.972;11.662;2023-05-14T14:16:05;4.63;;;2.67;;